Time;durP1;ratioP1;P1;durP2;ratioP2;P2;SDS_P1;SDS_P2;PMS_P1;PMS_P2;Temp;Humidity;BMP_temperature;BMP_pressure;BME280_temperature;BME280_humidity;BME280_pressure;Samples;Min_cycle;Max_cycle;Signal;HPM_P1;HPM_P2
2023/08/06 00:00:23;;;;;;;0.80;0.60;;;17.20;99.90;;;;;;4928222;28;20042;-83
2023/08/06 00:02:49;;;;;;;1.30;0.98;;;17.20;99.90;;;;;;4959479;28;20228;-82
2023/08/06 00:05:20;;;;;;;0.90;0.70;;;17.20;99.90;;;;;;4959663;28;26129;-82
2023/08/06 00:07:48;;;;;;;1.15;0.70;;;17.20;99.90;;;;;;4950205;28;20030;-82
2023/08/06 00:10:14;;;;;;;0.75;0.60;;;17.30;99.90;;;;;;4931961;28;20031;-82
2023/08/06 00:12:40;;;;;;;1.40;0.63;;;17.20;99.90;;;;;;4963154;28;20048;-81
2023/08/06 00:15:06;;;;;;;1.17;0.67;;;17.20;99.90;;;;;;4941120;28;20061;-83
2023/08/06 00:17:32;;;;;;;0.75;0.60;;;17.20;99.90;;;;;;4945364;28;20026;-82
2023/08/06 00:20:04;;;;;;;1.08;0.52;;;17.20;99.90;;;;;;4952297;28;20022;-83
2023/08/06 00:22:30;;;;;;;0.73;0.73;;;17.20;99.90;;;;;;4931121;28;20011;-82
2023/08/06 00:24:57;;;;;;;1.40;0.60;;;17.20;99.90;;;;;;4933034;28;20069;-83
2023/08/06 00:27:23;;;;;;;1.17;0.63;;;17.20;99.90;;;;;;4948962;28;20034;-83
2023/08/06 00:29:49;;;;;;;0.60;0.60;;;17.20;99.90;;;;;;4960530;28;20030;-82
2023/08/06 00:32:15;;;;;;;0.90;0.57;;;17.20;99.90;;;;;;4934816;28;20605;-84
2023/08/06 00:34:40;;;;;;;0.80;0.63;;;17.20;99.90;;;;;;4948444;28;20030;-82
2023/08/06 00:37:06;;;;;;;1.08;0.60;;;17.20;99.90;;;;;;4942383;28;20022;-83
2023/08/06 00:39:32;;;;;;;0.60;0.50;;;17.20;99.90;;;;;;4956703;28;20038;-83
2023/08/06 00:41:58;;;;;;;0.70;0.50;;;17.20;99.90;;;;;;4953497;28;20113;-83
2023/08/06 00:44:24;;;;;;;1.30;0.57;;;17.20;99.90;;;;;;4947168;28;20662;-83
2023/08/06 00:46:50;;;;;;;0.70;0.57;;;17.20;99.90;;;;;;4959782;28;20023;-82
2023/08/06 00:49:16;;;;;;;0.67;0.57;;;17.20;99.90;;;;;;4944742;28;20687;-82
2023/08/06 00:51:43;;;;;;;1.27;0.88;;;17.20;99.90;;;;;;4946792;28;20026;-82
2023/08/06 00:54:09;;;;;;;0.50;0.50;;;17.20;99.90;;;;;;4973141;28;20544;-82
2023/08/06 00:56:36;;;;;;;0.47;0.47;;;17.30;99.90;;;;;;4929510;28;20014;-82
2023/08/06 00:59:06;;;;;;;0.63;0.60;;;17.30;99.90;;;;;;4944213;28;20038;-83
2023/08/06 01:01:31;;;;;;;0.97;0.60;;;17.20;99.90;;;;;;4964598;28;20050;-80
2023/08/06 01:03:57;;;;;;;0.85;0.70;;;17.20;99.90;;;;;;4928151;28;20148;-83
2023/08/06 01:06:52;;;;;;;0.75;0.60;;;17.30;99.90;;;;;;4981062;28;20161;-84
2023/08/06 01:09:31;;;;;;;0.57;0.53;;;17.30;99.90;;;;;;4947504;28;20115;-84
2023/08/06 01:12:03;;;;;;;1.48;0.70;;;17.30;99.90;;;;;;4941044;28;20026;-83
2023/08/06 01:14:40;;;;;;;0.70;0.65;;;17.30;99.90;;;;;;4952086;28;20093;-84
2023/08/06 01:17:07;;;;;;;2.70;0.90;;;17.30;99.90;;;;;;4952722;28;20366;-84
2023/08/06 01:19:33;;;;;;;0.60;0.55;;;17.30;99.90;;;;;;4952009;28;20038;-85
2023/08/06 01:21:59;;;;;;;0.93;0.60;;;17.30;99.90;;;;;;4949813;28;20022;-84
2023/08/06 01:24:24;;;;;;;0.52;0.50;;;17.30;99.90;;;;;;4938548;28;20022;-85
2023/08/06 01:27:17;;;;;;;0.93;0.50;;;17.30;99.90;;;;;;4975263;28;20176;-85
2023/08/06 01:29:56;;;;;;;0.85;0.60;;;17.30;99.90;;;;;;4965091;28;20026;-84
2023/08/06 01:32:24;;;;;;;1.50;0.50;;;17.30;99.90;;;;;;4951925;28;20085;-85
2023/08/06 01:34:51;;;;;;;1.00;0.68;;;17.30;99.90;;;;;;4924128;28;20117;-84
2023/08/06 01:37:17;;;;;;;1.20;0.60;;;17.30;99.90;;;;;;4967501;28;20432;-85
2023/08/06 01:39:43;;;;;;;0.63;0.60;;;17.30;99.90;;;;;;4955167;28;20026;-85
2023/08/06 01:42:09;;;;;;;0.70;0.60;;;17.30;99.90;;;;;;4947590;28;21031;-84
2023/08/06 01:44:35;;;;;;;0.65;0.63;;;17.30;99.90;;;;;;4991341;28;20026;-85
2023/08/06 01:47:00;;;;;;;1.13;0.70;;;17.30;99.90;;;;;;4966017;28;20073;-84
2023/08/06 01:49:26;;;;;;;0.60;0.60;;;17.30;99.90;;;;;;4962344;28;20033;-84
2023/08/06 01:51:52;;;;;;;0.60;0.60;;;17.30;99.90;;;;;;4963095;28;20026;-84
2023/08/06 01:54:17;;;;;;;1.17;0.70;;;17.30;99.90;;;;;;4952184;28;20018;-85
2023/08/06 01:56:43;;;;;;;0.93;0.53;;;17.30;99.90;;;;;;4961974;28;20405;-84
2023/08/06 01:59:09;;;;;;;0.65;0.60;;;17.30;99.90;;;;;;4943969;28;20107;-85
2023/08/06 02:01:35;;;;;;;0.80;0.70;;;17.30;99.90;;;;;;4973692;28;20062;-85
2023/08/06 02:04:00;;;;;;;1.17;0.73;;;17.40;99.90;;;;;;4956305;28;20082;-85
2023/08/06 02:06:26;;;;;;;0.90;0.60;;;17.40;99.90;;;;;;4968976;28;20033;-85
2023/08/06 02:08:51;;;;;;;1.53;0.80;;;17.40;99.90;;;;;;4981893;28;20113;-84
2023/08/06 02:11:18;;;;;;;1.35;0.70;;;17.40;99.90;;;;;;4952057;28;20401;-86
2023/08/06 02:13:43;;;;;;;1.60;0.70;;;17.40;99.90;;;;;;4937623;28;20109;-84
2023/08/06 02:16:09;;;;;;;1.73;0.80;;;17.40;99.90;;;;;;4962408;28;20168;-84
2023/08/06 02:18:35;;;;;;;1.00;0.70;;;17.40;99.90;;;;;;4966118;28;20026;-86
2023/08/06 02:21:01;;;;;;;1.27;0.67;;;17.40;99.90;;;;;;4950987;28;20235;-85
2023/08/06 02:23:27;;;;;;;1.38;0.75;;;17.40;99.90;;;;;;4949336;28;20456;-85
2023/08/06 02:25:58;;;;;;;1.40;0.90;;;17.40;99.90;;;;;;4934641;28;20117;-85
2023/08/06 02:28:23;;;;;;;1.05;0.80;;;17.40;99.90;;;;;;4959056;28;20093;-87
2023/08/06 02:30:50;;;;;;;1.60;0.98;;;17.40;99.90;;;;;;4967078;28;20034;-86
2023/08/06 02:33:16;;;;;;;1.47;1.00;;;17.40;99.90;;;;;;4981404;28;20033;-88
2023/08/06 02:35:42;;;;;;;1.55;0.80;;;17.40;99.90;;;;;;4942821;28;20389;-86
2023/08/06 02:38:07;;;;;;;1.40;0.97;;;17.80;99.90;;;;;;4930587;28;20331;-87
2023/08/06 02:40:33;;;;;;;1.30;0.90;;;17.40;99.90;;;;;;4945458;28;20296;-88
2023/08/06 02:42:59;;;;;;;2.20;1.10;;;17.40;99.90;;;;;;4933805;28;20116;-85
2023/08/06 02:45:25;;;;;;;1.60;1.00;;;17.40;99.90;;;;;;4963472;28;20244;-88
2023/08/06 02:47:50;;;;;;;1.63;1.13;;;17.40;99.90;;;;;;4951967;28;20026;-88
2023/08/06 02:50:16;;;;;;;1.77;1.02;;;17.40;99.90;;;;;;4952720;28;20040;-85
2023/08/06 02:52:42;;;;;;;1.57;1.20;;;17.40;99.90;;;;;;4982820;28;20026;-86
2023/08/06 02:55:07;;;;;;;1.77;0.98;;;17.40;99.90;;;;;;4942980;28;20038;-85
2023/08/06 02:57:33;;;;;;;2.17;1.10;;;17.40;99.90;;;;;;4940090;28;20133;-85
2023/08/06 02:59:59;;;;;;;1.90;1.20;;;17.40;99.90;;;;;;4958362;28;20045;-85
2023/08/06 03:02:25;;;;;;;1.83;1.20;;;17.50;99.90;;;;;;4967290;28;20041;-85
2023/08/06 03:04:50;;;;;;;2.40;1.33;;;17.50;99.90;;;;;;4965422;28;20374;-88
2023/08/06 03:07:16;;;;;;;2.53;1.45;;;17.50;99.90;;;;;;4971827;28;20037;-85
2023/08/06 03:09:42;;;;;;;1.77;1.20;;;17.50;99.90;;;;;;4932264;28;20668;-86
2023/08/06 03:12:08;;;;;;;2.47;1.20;;;17.50;99.90;;;;;;4954534;28;20035;-85
2023/08/06 03:14:33;;;;;;;2.57;1.50;;;18.40;99.90;;;;;;4941964;28;20294;-86
2023/08/06 03:16:59;;;;;;;2.03;1.35;;;17.50;99.90;;;;;;4949235;28;20022;-85
2023/08/06 03:19:25;;;;;;;1.90;1.20;;;17.50;99.90;;;;;;4953418;28;20821;-86
2023/08/06 03:21:51;;;;;;;3.40;1.60;;;17.50;99.90;;;;;;4958861;28;20518;-87
2023/08/06 03:24:16;;;;;;;1.90;1.30;;;17.50;99.90;;;;;;4934642;28;20042;-85
2023/08/06 03:26:42;;;;;;;2.35;1.40;;;17.50;99.90;;;;;;4954503;28;20105;-85
2023/08/06 03:29:08;;;;;;;2.07;1.40;;;17.50;99.90;;;;;;4939163;28;20132;-84
2023/08/06 03:31:33;;;;;;;1.98;1.23;;;17.50;99.90;;;;;;4960621;28;20161;-84
2023/08/06 03:33:59;;;;;;;1.90;1.37;;;17.50;99.90;;;;;;4968610;28;20019;-84
2023/08/06 03:36:25;;;;;;;1.83;1.20;;;17.50;99.90;;;;;;4944984;28;20188;-84
2023/08/06 03:38:50;;;;;;;2.23;1.33;;;17.50;99.90;;;;;;4946822;28;20033;-85
2023/08/06 03:41:16;;;;;;;2.67;1.40;;;17.50;99.90;;;;;;4948690;28;20148;-84
2023/08/06 03:43:42;;;;;;;1.80;1.30;;;17.50;99.90;;;;;;4947493;28;20081;-84
2023/08/06 03:46:07;;;;;;;4.32;1.75;;;17.50;99.90;;;;;;4959988;28;20041;-85
2023/08/06 03:48:33;;;;;;;2.30;1.27;;;17.50;99.90;;;;;;4951079;28;20723;-85
2023/08/06 03:51:01;;;;;;;2.92;1.33;;;17.50;99.90;;;;;;4954206;28;20362;-86
2023/08/06 03:53:27;;;;;;;2.20;1.30;;;17.50;99.90;;;;;;4958825;28;20162;-84
2023/08/06 03:55:53;;;;;;;2.97;1.50;;;17.50;99.90;;;;;;4950654;28;20473;-81
2023/08/06 03:58:18;;;;;;;3.20;1.57;;;17.50;99.90;;;;;;4967129;28;20038;-85
2023/08/06 04:00:44;;;;;;;2.70;1.50;;;17.50;99.90;;;;;;4934663;28;20269;-86
2023/08/06 04:03:10;;;;;;;2.73;1.60;;;17.50;99.90;;;;;;4969222;28;20033;-88
2023/08/06 04:05:35;;;;;;;3.78;1.60;;;17.50;99.90;;;;;;4960563;28;20712;-87
2023/08/06 04:08:01;;;;;;;4.13;1.73;;;17.50;99.90;;;;;;4962322;28;20068;-86
2023/08/06 04:10:27;;;;;;;3.80;1.90;;;17.50;99.90;;;;;;4971218;28;20481;-86
2023/08/06 04:12:52;;;;;;;5.13;2.20;;;17.50;99.90;;;;;;4931564;28;20033;-87
2023/08/06 04:15:18;;;;;;;3.90;2.08;;;17.50;99.90;;;;;;4934968;28;20046;-83
2023/08/06 04:17:44;;;;;;;3.60;2.10;;;17.50;99.90;;;;;;4955681;28;20026;-84
2023/08/06 04:20:10;;;;;;;3.10;1.60;;;17.50;99.90;;;;;;4942988;28;20657;-85
2023/08/06 04:22:35;;;;;;;2.95;1.60;;;17.50;99.90;;;;;;4946122;28;20034;-85
2023/08/06 04:25:02;;;;;;;3.07;1.70;;;17.50;99.90;;;;;;4954178;28;20053;-84
2023/08/06 04:27:27;;;;;;;1.52;0.88;;;17.40;99.90;;;;;;4928100;28;20153;-83
2023/08/06 04:29:53;;;;;;;1.00;0.73;;;17.40;99.90;;;;;;4968052;28;20023;-80
2023/08/06 04:32:19;;;;;;;1.00;0.65;;;17.50;99.90;;;;;;4935617;28;20311;-83
2023/08/06 04:34:46;;;;;;;0.80;0.60;;;17.50;99.90;;;;;;4981242;28;20030;-83
2023/08/06 04:37:12;;;;;;;0.40;0.40;;;17.40;99.90;;;;;;4946196;28;20057;-87
2023/08/06 04:39:38;;;;;;;0.40;0.40;;;17.40;99.90;;;;;;4990270;28;20481;-82
2023/08/06 04:42:04;;;;;;;0.50;0.50;;;17.40;99.90;;;;;;4960396;28;20076;-84
2023/08/06 04:44:30;;;;;;;0.60;0.60;;;17.40;99.90;;;;;;4967020;28;20269;-81
2023/08/06 04:46:55;;;;;;;0.57;0.50;;;17.30;99.90;;;;;;4939580;28;20129;-84
2023/08/06 04:49:21;;;;;;;1.27;0.60;;;17.30;99.90;;;;;;4956566;28;20035;-85
2023/08/06 04:51:47;;;;;;;1.35;0.95;;;17.30;99.90;;;;;;4963015;28;20018;-87
2023/08/06 04:54:13;;;;;;;1.52;0.93;;;17.30;99.90;;;;;;4951152;28;20025;-85
2023/08/06 04:56:39;;;;;;;2.57;1.40;;;17.20;99.90;;;;;;4961204;28;20389;-84
2023/08/06 04:59:05;;;;;;;2.75;1.60;;;17.20;99.90;;;;;;4922924;28;20031;-85
2023/08/06 05:01:31;;;;;;;2.05;1.40;;;17.10;99.90;;;;;;4950489;28;25481;-83
2023/08/06 05:03:57;;;;;;;2.20;1.50;;;17.10;99.90;;;;;;4943281;28;20070;-86
2023/08/06 05:06:23;;;;;;;3.50;2.05;;;17.00;99.90;;;;;;4950486;28;20034;-84
2023/08/06 05:08:48;;;;;;;3.50;2.20;;;16.90;99.90;;;;;;4943134;28;20945;-86
2023/08/06 05:11:14;;;;;;;2.80;1.90;;;16.90;99.90;;;;;;4938611;28;20270;-86
2023/08/06 05:13:40;;;;;;;3.80;2.40;;;16.80;99.90;;;;;;4946808;28;20026;-90
2023/08/06 05:16:06;;;;;;;5.37;2.17;;;16.80;99.90;;;;;;4960044;28;20039;-88
2023/08/06 05:18:34;;;;;;;3.80;2.00;;;16.70;99.90;;;;;;4948568;28;20065;-87
2023/08/06 05:20:59;;;;;;;2.97;1.80;;;16.70;99.90;;;;;;4938022;28;20277;-84
2023/08/06 05:23:25;;;;;;;2.60;1.73;;;16.70;99.90;;;;;;4956067;28;20088;-84
2023/08/06 05:25:51;;;;;;;2.30;1.50;;;;;;;;;;4938531;28;20045;-88
2023/08/06 05:28:17;;;;;;;3.33;1.80;;;16.60;99.90;;;;;;4968400;28;20066;-85
2023/08/06 05:30:42;;;;;;;3.80;1.67;;;16.60;99.90;;;;;;4956340;28;20037;-85
2023/08/06 05:33:08;;;;;;;4.23;1.40;;;16.60;99.90;;;;;;4937502;28;20026;-86
2023/08/06 05:35:34;;;;;;;2.78;1.30;;;16.70;99.90;;;;;;4951816;28;20029;-87
2023/08/06 05:38:00;;;;;;;1.90;1.30;;;16.60;99.90;;;;;;4957013;28;20528;-86
2023/08/06 05:40:26;;;;;;;3.88;1.38;;;16.60;99.90;;;;;;4976541;28;20559;-88
2023/08/06 05:42:55;;;;;;;1.73;1.33;;;16.60;99.90;;;;;;4964943;28;20273;-86
2023/08/06 05:45:20;;;;;;;2.80;1.20;;;16.70;99.90;;;;;;4954505;28;20019;-90
2023/08/06 05:47:50;;;;;;;2.40;1.30;;;16.70;99.90;;;;;;4945174;28;20022;-87
2023/08/06 05:50:16;;;;;;;2.38;1.10;;;16.70;99.90;;;;;;4942785;28;20014;-85
2023/08/06 05:52:41;;;;;;;3.23;1.40;;;16.70;99.90;;;;;;4977144;28;20481;-88
2023/08/06 05:55:08;;;;;;;3.10;1.30;;;16.70;99.90;;;;;;4961583;28;20024;-87
2023/08/06 05:57:33;;;;;;;2.15;1.33;;;16.70;99.90;;;;;;4962053;28;20027;-86
2023/08/06 05:59:59;;;;;;;2.40;1.03;;;16.70;99.90;;;;;;4954714;28;20561;-89
2023/08/06 06:02:25;;;;;;;4.15;1.27;;;16.70;99.90;;;;;;4947839;28;20038;-89
2023/08/06 06:04:50;;;;;;;1.67;0.80;;;16.70;99.90;;;;;;4936563;28;20391;-82
2023/08/06 06:07:16;;;;;;;2.88;1.10;;;16.70;99.90;;;;;;4942400;28;20032;-89
2023/08/06 06:09:42;;;;;;;1.50;0.83;;;16.70;99.90;;;;;;4967867;28;20121;-87
2023/08/06 06:12:08;;;;;;;2.90;1.10;;;16.70;99.90;;;;;;4942484;28;20085;-82
2023/08/06 06:14:33;;;;;;;2.27;1.03;;;16.70;99.90;;;;;;4961395;28;20164;-87
2023/08/06 06:17:00;;;;;;;1.95;1.08;;;16.70;99.90;;;;;;4964234;28;20030;-88
2023/08/06 06:19:26;;;;;;;1.98;1.02;;;16.70;99.90;;;;;;4948401;28;20026;-87
2023/08/06 06:21:53;;;;;;;2.53;1.13;;;16.70;99.90;;;;;;4922143;28;21177;-82
2023/08/06 06:24:19;;;;;;;2.78;1.10;;;16.70;99.90;;;;;;4949936;28;20042;-84
2023/08/06 06:26:44;;;;;;;2.03;1.15;;;16.70;99.90;;;;;;4954521;28;20043;-87
2023/08/06 06:29:10;;;;;;;2.63;0.97;;;16.70;99.90;;;;;;4966539;28;20942;-85
2023/08/06 06:31:36;;;;;;;2.92;1.17;;;16.70;99.90;;;;;;4955397;28;20509;-88
2023/08/06 06:34:01;;;;;;;2.47;1.10;;;16.70;99.90;;;;;;4929037;28;20122;-82
2023/08/06 06:36:27;;;;;;;2.55;1.08;;;16.80;99.90;;;;;;4952490;28;20061;-89
2023/08/06 06:38:53;;;;;;;1.90;0.97;;;16.80;99.90;;;;;;4941236;28;20637;-88
2023/08/06 06:41:19;;;;;;;2.13;1.02;;;16.80;99.90;;;;;;4954972;28;20408;-84
2023/08/06 06:43:44;;;;;;;1.13;0.90;;;16.80;99.90;;;;;;4950069;28;20061;-87
2023/08/06 06:46:11;;;;;;;1.58;1.00;;;16.80;99.90;;;;;;4961860;28;20100;-87
2023/08/06 06:48:36;;;;;;;1.48;1.10;;;16.90;99.90;;;;;;4930998;28;20452;-88
2023/08/06 06:51:02;;;;;;;1.70;0.90;;;16.80;99.90;;;;;;4942042;28;20088;-89
2023/08/06 06:53:28;;;;;;;3.38;1.20;;;17.80;99.90;;;;;;4943897;28;20046;-88
2023/08/06 06:55:55;;;;;;;2.03;0.90;;;16.80;99.90;;;;;;4945917;28;20034;-87
2023/08/06 06:58:21;;;;;;;1.52;0.90;;;16.80;99.90;;;;;;4960144;28;20046;-89
2023/08/06 07:00:50;;;;;;;1.23;0.90;;;16.80;99.90;;;;;;4951246;28;20041;-86
2023/08/06 07:03:16;;;;;;;2.60;1.08;;;16.80;99.90;;;;;;4962372;28;20042;-87
2023/08/06 07:05:43;;;;;;;2.20;1.10;;;16.90;99.90;;;;;;4922416;28;20038;-86
2023/08/06 07:08:08;;;;;;;2.42;1.10;;;16.90;99.90;;;;;;4952728;28;20046;-84
2023/08/06 07:10:34;;;;;;;1.87;1.10;;;16.90;99.90;;;;;;4941801;28;20416;-85
2023/08/06 07:13:00;;;;;;;2.38;1.10;;;16.90;99.90;;;;;;4954564;28;22110;-86
2023/08/06 07:15:26;;;;;;;3.43;1.70;;;16.90;99.90;;;;;;4943470;28;20377;-85
2023/08/06 07:17:51;;;;;;;2.28;1.00;;;17.00;99.90;;;;;;4969358;28;20374;-86
2023/08/06 07:20:18;;;;;;;2.23;1.00;;;;;;;;;;4922090;28;20825;-85
2023/08/06 07:22:44;;;;;;;1.70;1.00;;;17.00;99.90;;;;;;4935294;28;20034;-87
2023/08/06 07:25:10;;;;;;;2.65;1.17;;;16.80;99.90;;;;;;4940188;28;20426;-85
2023/08/06 07:27:36;;;;;;;1.87;0.80;;;17.10;99.90;;;;;;4964577;28;20061;-87
2023/08/06 07:30:01;;;;;;;2.13;1.00;;;17.00;99.90;;;;;;4934448;28;20870;-86
2023/08/06 07:32:27;;;;;;;1.73;0.90;;;17.10;99.90;;;;;;4974132;28;20027;-87
2023/08/06 07:35:00;;;;;;;1.03;0.80;;;17.00;99.90;;;;;;4965607;28;20817;-86
2023/08/06 07:37:28;;;;;;;1.50;0.88;;;17.00;99.90;;;;;;4943550;28;20030;-86
2023/08/06 07:39:54;;;;;;;4.18;0.93;;;17.00;99.90;;;;;;4922474;28;20479;-85
2023/08/06 07:42:20;;;;;;;1.58;0.80;;;17.10;99.90;;;;;;4969578;28;20460;-87
2023/08/06 07:44:55;;;;;;;1.13;0.65;;;17.10;99.90;;;;;;4939141;28;20014;-86
2023/08/06 07:47:21;;;;;;;2.37;0.70;;;17.10;99.90;;;;;;4959481;28;20393;-85
2023/08/06 07:49:46;;;;;;;4.20;1.00;;;17.10;99.90;;;;;;4955164;28;20029;-82
2023/08/06 07:52:12;;;;;;;1.80;0.63;;;17.20;99.90;;;;;;4941445;28;20014;-85
2023/08/06 07:54:38;;;;;;;1.55;0.60;;;17.20;99.90;;;;;;4932848;28;20031;-86
2023/08/06 07:57:04;;;;;;;2.70;0.80;;;17.20;99.90;;;;;;4959578;28;20633;-87
2023/08/06 07:59:30;;;;;;;2.10;0.60;;;17.20;99.90;;;;;;4947803;28;20416;-87
2023/08/06 08:01:56;;;;;;;2.72;0.70;;;17.30;99.90;;;;;;4948913;28;20651;-86
2023/08/06 08:04:22;;;;;;;2.45;0.80;;;17.30;99.90;;;;;;4958364;28;20061;-86
2023/08/06 08:06:47;;;;;;;3.10;0.60;;;17.10;99.90;;;;;;4920499;28;20156;-86
2023/08/06 08:09:14;;;;;;;2.88;0.70;;;17.40;99.90;;;;;;4939195;28;20482;-88
2023/08/06 08:11:40;;;;;;;2.80;0.80;;;17.50;99.90;;;;;;4954064;28;20030;-86
2023/08/06 08:14:06;;;;;;;1.35;0.60;;;17.50;99.90;;;;;;4964135;28;20042;-86
2023/08/06 08:16:32;;;;;;;2.33;0.80;;;17.60;99.90;;;;;;4953721;28;20018;-87
2023/08/06 08:18:58;;;;;;;2.53;0.70;;;17.60;99.90;;;;;;4933672;28;20088;-85
2023/08/06 08:21:24;;;;;;;2.22;0.70;;;17.70;99.90;;;;;;4952318;28;20488;-86
2023/08/06 08:23:50;;;;;;;1.03;0.53;;;17.70;99.90;;;;;;4945546;28;20037;-83
2023/08/06 08:26:16;;;;;;;3.17;0.88;;;17.70;99.90;;;;;;4959813;28;20022;-82
2023/08/06 08:28:42;;;;;;;3.95;0.80;;;17.70;99.90;;;;;;4939768;28;20381;-89
2023/08/06 08:31:11;;;;;;;2.43;0.87;;;17.80;99.90;;;;;;4941929;28;20550;-82
2023/08/06 08:33:40;;;;;;;2.33;0.60;;;17.80;99.90;;;;;;4934262;28;20034;-89
2023/08/06 08:36:06;;;;;;;1.00;0.52;;;17.80;99.90;;;;;;4955651;28;20064;-81
2023/08/06 08:38:32;;;;;;;1.80;0.50;;;17.90;99.90;;;;;;4927236;28;20149;-83
2023/08/06 08:40:57;;;;;;;1.87;0.70;;;17.90;99.90;;;;;;4946909;28;20277;-87
2023/08/06 08:43:23;;;;;;;2.88;0.60;;;17.90;99.90;;;;;;4958310;28;20560;-82
2023/08/06 08:46:00;;;;;;;2.33;0.70;;;17.90;99.90;;;;;;4961894;28;20026;-83
2023/08/06 08:48:29;;;;;;;1.87;0.63;;;17.90;99.90;;;;;;4943911;28;20038;-82
2023/08/06 08:50:56;;;;;;;1.52;0.68;;;17.80;99.90;;;;;;4946268;28;22958;-82
2023/08/06 08:53:22;;;;;;;1.02;0.60;;;17.80;99.90;;;;;;4921267;28;20037;-87
2023/08/06 08:55:49;;;;;;;2.15;0.57;;;17.80;99.90;;;;;;4962367;28;20839;-90
2023/08/06 08:58:16;;;;;;;2.13;0.70;;;17.70;99.90;;;;;;4942292;28;20084;-87
2023/08/06 09:00:50;;;;;;;2.47;0.70;;;17.70;99.90;;;;;;4963739;28;20041;-87
2023/08/06 09:03:17;;;;;;;0.82;0.50;;;17.60;99.90;;;;;;4948246;28;20050;-85
2023/08/06 09:05:45;;;;;;;1.73;0.57;;;17.60;99.90;;;;;;4942806;28;20043;-90
2023/08/06 09:08:15;;;;;;;1.08;0.60;;;17.50;99.90;;;;;;4931995;28;20489;-86
2023/08/06 09:10:42;;;;;;;0.75;0.60;;;17.50;99.90;;;;;;4944395;28;20026;-88
2023/08/06 09:13:08;;;;;;;1.53;0.60;;;17.50;99.90;;;;;;4922853;28;20497;-88
2023/08/06 09:15:35;;;;;;;1.75;0.50;;;;;;;;;;4930131;28;20265;-84
2023/08/06 09:18:08;;;;;;;2.30;0.63;;;17.50;99.90;;;;;;4943813;28;20037;-86
2023/08/06 09:20:34;;;;;;;1.58;0.57;;;17.60;99.90;;;;;;4929741;28;20653;-88
2023/08/06 09:23:08;;;;;;;2.33;0.57;;;17.70;99.90;;;;;;4943978;28;20476;-84
2023/08/06 09:25:35;;;;;;;0.93;0.50;;;17.70;99.90;;;;;;4933499;28;20037;-86
2023/08/06 09:28:03;;;;;;;1.48;0.70;;;17.80;99.90;;;;;;4923224;28;20101;-86
2023/08/06 09:30:34;;;;;;;2.50;0.80;;;17.80;99.90;;;;;;4937362;28;20491;-86
2023/08/06 09:33:00;;;;;;;1.58;0.65;;;17.80;99.90;;;;;;4954726;28;20031;-86
2023/08/06 09:35:30;;;;;;;3.03;0.90;;;17.80;99.90;;;;;;4950172;28;20050;-86
2023/08/06 09:38:06;;;;;;;1.80;0.60;;;17.90;99.90;;;;;;4946317;28;20800;-87
2023/08/06 09:40:32;;;;;;;2.17;0.63;;;17.90;99.90;;;;;;4965737;28;20026;-86
2023/08/06 09:42:59;;;;;;;2.80;0.73;;;17.80;99.90;;;;;;4964636;28;20867;-85
2023/08/06 09:45:35;;;;;;;3.42;0.80;;;17.90;99.90;;;;;;4968557;28;20095;-87
2023/08/06 09:48:06;;;;;;;1.95;0.80;;;17.80;99.90;;;;;;4967112;28;20018;-84
2023/08/06 09:50:37;;;;;;;0.87;0.50;;;17.80;99.90;;;;;;4956577;28;20038;-89
2023/08/06 09:53:08;;;;;;;1.42;0.63;;;17.70;99.90;;;;;;4950869;28;20022;-84
2023/08/06 09:55:34;;;;;;;1.85;0.55;;;17.70;99.90;;;;;;4937340;28;20027;-87
2023/08/06 09:58:02;;;;;;;2.58;0.60;;;17.70;99.90;;;;;;4937987;28;20038;-86
2023/08/06 10:00:30;;;;;;;1.42;0.57;;;17.70;99.90;;;;;;4942037;28;20064;-86
2023/08/06 10:03:00;;;;;;;1.50;0.60;;;17.70;99.90;;;;;;4947765;28;20037;-87
2023/08/06 10:05:27;;;;;;;0.98;0.60;;;17.60;99.90;;;;;;4938145;28;20054;-86
2023/08/06 10:07:53;;;;;;;1.27;0.47;;;17.60;99.90;;;;;;4943531;28;20058;-88
2023/08/06 10:10:19;;;;;;;1.90;0.60;;;17.60;99.90;;;;;;4938470;28;20034;-88
2023/08/06 10:12:54;;;;;;;1.95;0.60;;;17.60;99.90;;;;;;4943337;28;20230;-83
2023/08/06 10:15:27;;;;;;;2.27;0.50;;;17.60;99.90;;;;;;4950961;28;20204;-87
2023/08/06 10:17:56;;;;;;;1.67;0.68;;;17.60;99.90;;;;;;4946295;28;20026;-85
2023/08/06 10:20:22;;;;;;;1.65;0.50;;;17.60;99.90;;;;;;4935699;28;20037;-87
2023/08/06 10:23:15;;;;;;;1.48;0.50;;;17.60;99.90;;;;;;4951151;28;20042;-86
2023/08/06 10:25:42;;;;;;;2.22;0.52;;;17.60;99.90;;;;;;4945929;28;20714;-87
2023/08/06 10:28:09;;;;;;;1.03;0.40;;;17.60;99.90;;;;;;4964609;28;20184;-87
2023/08/06 10:30:45;;;;;;;1.77;0.55;;;17.60;99.90;;;;;;4934014;28;20512;-86
2023/08/06 10:33:11;;;;;;;2.20;0.55;;;17.60;99.90;;;;;;4961020;28;20559;-87
2023/08/06 10:35:40;;;;;;;1.15;0.60;;;17.60;99.90;;;;;;4952276;28;20026;-86
2023/08/06 10:38:11;;;;;;;2.60;0.70;;;17.60;99.90;;;;;;4971097;28;20263;-86
2023/08/06 10:40:41;;;;;;;2.40;0.80;;;17.70;99.90;;;;;;4934586;28;20155;-88
2023/08/06 10:43:08;;;;;;;4.00;0.60;;;17.60;99.90;;;;;;4961516;28;20722;-88
2023/08/06 10:45:35;;;;;;;2.53;0.60;;;17.60;99.90;;;;;;4946971;28;20041;-85
2023/08/06 10:48:02;;;;;;;2.38;0.50;;;17.70;99.90;;;;;;4945411;28;20056;-84
2023/08/06 10:50:28;;;;;;;1.23;0.53;;;17.60;99.90;;;;;;4954096;28;20053;-82
2023/08/06 10:52:54;;;;;;;1.75;0.40;;;17.60;99.90;;;;;;4918109;28;20027;-87
2023/08/06 10:55:38;;;;;;;3.17;0.57;;;17.60;99.90;;;;;;4945543;28;20044;-86
2023/08/06 10:58:04;;;;;;;1.17;0.50;;;17.70;99.90;;;;;;4959552;28;20037;-82
2023/08/06 11:00:29;;;;;;;1.20;0.50;;;17.70;99.90;;;;;;4935432;28;20038;-86
2023/08/06 11:02:55;;;;;;;2.53;0.60;;;17.70;99.90;;;;;;4949998;28;20501;-88
2023/08/06 11:05:21;;;;;;;1.00;0.63;;;17.60;99.90;;;;;;4960779;28;20038;-86
2023/08/06 11:07:49;;;;;;;0.30;0.30;;;17.70;99.90;;;;;;4950127;28;20032;-84
2023/08/06 11:10:15;;;;;;;0.50;0.47;;;17.70;99.90;;;;;;4945454;28;20222;-82
2023/08/06 11:12:40;;;;;;;0.57;0.40;;;17.80;99.90;;;;;;4925608;28;20038;-83
2023/08/06 11:15:07;;;;;;;1.00;0.50;;;17.90;99.90;;;;;;4922202;28;20300;-84
2023/08/06 11:17:34;;;;;;;0.90;0.50;;;18.00;99.90;;;;;;4963342;28;20408;-84
2023/08/06 11:20:04;;;;;;;1.17;0.52;;;18.10;99.90;;;;;;4954882;28;20168;-86
2023/08/06 11:22:31;;;;;;;3.83;0.80;;;18.20;99.90;;;;;;4968627;28;20015;-84
2023/08/06 11:24:57;;;;;;;1.10;0.50;;;18.20;99.90;;;;;;4949605;28;20072;-86
2023/08/06 11:27:23;;;;;;;1.55;0.55;;;18.30;99.90;;;;;;4946512;28;20011;-85
2023/08/06 11:29:49;;;;;;;1.80;0.80;;;18.20;99.90;;;;;;4962930;28;20033;-88
2023/08/06 11:32:15;;;;;;;1.23;0.57;;;18.20;99.90;;;;;;4957275;28;20705;-89
2023/08/06 11:34:41;;;;;;;1.50;0.60;;;18.20;99.90;;;;;;4968795;28;20031;-84
2023/08/06 11:37:07;;;;;;;1.50;0.50;;;18.10;99.90;;;;;;4959471;28;20241;-84
2023/08/06 11:39:37;;;;;;;1.45;0.50;;;18.10;99.90;;;;;;4972371;28;20064;-88
2023/08/06 11:42:04;;;;;;;1.30;0.60;;;18.00;99.90;;;;;;4947136;28;20132;-86
2023/08/06 11:44:34;;;;;;;1.63;0.40;;;18.00;99.90;;;;;;4961844;28;20267;-83
2023/08/06 11:47:01;;;;;;;1.73;0.60;;;18.00;99.90;;;;;;4951637;28;20121;-85
2023/08/06 11:49:41;;;;;;;1.63;0.50;;;18.00;99.90;;;;;;4958244;28;20143;-84
2023/08/06 11:52:25;;;;;;;1.60;0.75;;;18.00;99.90;;;;;;4949782;28;20037;-86
2023/08/06 11:55:06;;;;;;;0.98;0.45;;;18.00;99.90;;;;;;4941656;28;20480;-86
2023/08/06 11:57:34;;;;;;;2.95;0.50;;;17.70;99.90;;;;;;4954604;28;20746;-89
2023/08/06 12:00:05;;;;;;;1.47;0.60;;;18.00;99.90;;;;;;4947755;28;20027;-83
2023/08/06 12:02:35;;;;;;;1.33;0.45;;;18.00;99.90;;;;;;4949337;28;20803;-88
2023/08/06 12:05:20;;;;;;;2.08;0.60;;;17.40;99.90;;;;;;4947564;28;20053;-84
2023/08/06 12:07:51;;;;;;;1.23;0.70;;;18.10;99.90;;;;;;4929219;28;20038;-87
2023/08/06 12:10:17;;;;;;;3.13;0.50;;;18.00;99.90;;;;;;4954698;28;20025;-85
2023/08/06 12:12:43;;;;;;;1.07;0.60;;;18.40;99.90;;;;;;4946990;28;20103;-89
2023/08/06 12:15:10;;;;;;;1.40;0.55;;;18.00;99.90;;;;;;4952971;28;20343;-83
2023/08/06 12:17:36;;;;;;;2.83;0.80;;;18.10;99.90;;;;;;4934930;28;20058;-86
2023/08/06 12:20:06;;;;;;;1.02;0.60;;;18.00;99.90;;;;;;4946771;28;20512;-85
2023/08/06 12:22:35;;;;;;;1.23;0.50;;;18.00;99.90;;;;;;4943203;28;20026;-84
2023/08/06 12:25:07;;;;;;;1.27;0.60;;;18.00;99.90;;;;;;4950720;28;21599;-83
2023/08/06 12:27:37;;;;;;;3.03;0.70;;;17.90;99.90;;;;;;4958293;28;20034;-86
2023/08/06 12:30:04;;;;;;;2.75;0.73;;;17.90;99.90;;;;;;4933380;28;20508;-84
2023/08/06 12:32:30;;;;;;;2.25;0.70;;;17.80;99.90;;;;;;4956530;28;20091;-85
2023/08/06 12:34:57;;;;;;;3.10;0.97;;;17.80;99.90;;;;;;4941841;28;20014;-88
2023/08/06 12:37:25;;;;;;;3.08;0.90;;;17.80;99.90;;;;;;4941514;28;20523;-86
2023/08/06 12:39:51;;;;;;;2.85;0.70;;;17.70;99.90;;;;;;4933132;28;20117;-88
2023/08/06 12:42:17;;;;;;;2.90;0.70;;;17.70;99.90;;;;;;4959721;28;20577;-85
2023/08/06 12:44:43;;;;;;;1.47;0.60;;;17.70;99.90;;;;;;4936128;28;20026;-84
2023/08/06 12:47:09;;;;;;;1.45;0.73;;;17.60;99.90;;;;;;4943592;28;20022;-86